createdAt,value
2023-01-23T00:00:47.305Z,9.24
2023-01-23T00:03:14.757Z,9.12
2023-01-23T00:05:42.050Z,9.21
2023-01-23T00:08:09.235Z,9.47
2023-01-23T00:10:37.857Z,9.33
2023-01-23T00:13:05.206Z,9.41
2023-01-23T00:15:33.331Z,9.65
2023-01-23T00:18:00.791Z,9.43
2023-01-23T00:20:27.968Z,9.18
2023-01-23T00:22:55.402Z,9.15
2023-01-23T00:25:22.877Z,9.04
2023-01-23T00:27:50.132Z,9.39
2023-01-23T00:30:17.679Z,9.14
2023-01-23T00:32:45.268Z,9.06
2023-01-23T00:35:12.430Z,9.21
2023-01-23T00:37:39.625Z,9.04
2023-01-23T00:40:07.472Z,9.27
2023-01-23T00:42:34.656Z,8.96
2023-01-23T00:45:01.853Z,9.17
2023-01-23T00:47:29.292Z,9.28
2023-01-23T00:49:58.858Z,9.23
2023-01-23T00:52:26.401Z,8.95
2023-01-23T00:54:54.401Z,8.97
2023-01-23T00:57:21.682Z,8.98
2023-01-23T00:59:48.870Z,9.07
2023-01-23T01:02:16.385Z,9.20
2023-01-23T01:04:43.593Z,9.07
2023-01-23T01:07:10.968Z,9.10
2023-01-23T01:09:38.530Z,9.53
2023-01-23T01:12:06.542Z,9.47
2023-01-23T01:14:33.870Z,9.60
2023-01-23T01:17:01.441Z,9.22
2023-01-23T01:19:29.488Z,9.51
2023-01-23T01:21:56.710Z,9.60
2023-01-23T01:24:24.212Z,9.63
2023-01-23T01:26:51.698Z,9.59
2023-01-23T01:29:18.905Z,9.66
2023-01-23T01:31:46.639Z,9.70
2023-01-23T01:34:14.023Z,9.55
2023-01-23T01:36:41.197Z,9.82
2023-01-23T01:39:08.670Z,9.84
2023-01-23T01:41:36.468Z,9.49
2023-01-23T01:44:03.741Z,9.53
2023-01-23T01:46:32.749Z,9.59
2023-01-23T01:49:07.198Z,9.68
2023-01-23T01:51:43.532Z,9.71
2023-01-23T01:54:10.901Z,9.93
2023-01-23T01:56:44.737Z,10.05
2023-01-23T01:59:11.909Z,10.18
2023-01-23T02:01:39.609Z,10.25
2023-01-23T02:04:07.153Z,10.30
2023-01-23T02:06:34.337Z,10.32
2023-01-23T02:09:20.471Z,10.45
2023-01-23T02:11:48.695Z,10.42
2023-01-23T02:14:18.972Z,10.39
2023-01-23T02:16:50.587Z,10.60
2023-01-23T02:19:21.041Z,10.44
2023-01-23T02:21:48.297Z,10.48
2023-01-23T02:24:27.478Z,10.58
2023-01-23T02:26:54.996Z,10.64
2023-01-23T02:29:25.834Z,10.56
2023-01-23T02:31:56.249Z,10.40
2023-01-23T02:34:26.111Z,10.60
2023-01-23T02:36:53.802Z,10.76
2023-01-23T02:39:21.397Z,10.69
2023-01-23T02:41:50.345Z,10.04
2023-01-23T02:44:28.005Z,10.36
2023-01-23T02:46:56.993Z,10.51
2023-01-23T02:49:25.668Z,10.55
2023-01-23T02:51:54.163Z,10.52
2023-01-23T02:54:22.485Z,10.53
2023-01-23T02:56:49.977Z,10.59
2023-01-23T02:59:36.120Z,10.56
2023-01-23T03:02:04.466Z,10.45
2023-01-23T03:04:31.724Z,10.31
2023-01-23T03:06:59.423Z,10.33
2023-01-23T03:09:26.986Z,10.29
2023-01-23T03:11:54.355Z,9.68
2023-01-23T03:14:22.041Z,9.51
2023-01-23T03:16:54.079Z,9.96
2023-01-23T03:19:23.494Z,9.33
2023-01-23T03:21:51.456Z,9.37
2023-01-23T03:24:19.045Z,9.65
2023-01-23T03:26:47.061Z,8.78
2023-01-23T03:29:39.790Z,9.72
2023-01-23T03:32:07.286Z,10.03
2023-01-23T03:34:35.053Z,10.19
2023-01-23T03:37:03.376Z,9.98
2023-01-23T03:39:49.903Z,9.82
2023-01-23T03:42:18.046Z,10.04
2023-01-23T03:44:45.961Z,9.69
2023-01-23T03:47:13.211Z,10.03
2023-01-23T03:49:40.655Z,9.96
2023-01-23T03:52:08.048Z,10.02
2023-01-23T03:54:35.356Z,10.30
2023-01-23T03:57:05.406Z,9.81
2023-01-23T03:59:41.713Z,10.01
2023-01-23T04:02:09.220Z,10.16
2023-01-23T04:04:36.697Z,10.31
2023-01-23T04:07:05.649Z,10.21
2023-01-23T04:09:33.266Z,10.23
2023-01-23T04:12:01.878Z,10.41
2023-01-23T04:14:37.184Z,10.46
2023-01-23T04:17:05.365Z,10.02
2023-01-23T04:19:32.765Z,10.31
2023-01-23T04:22:00.082Z,10.41
2023-01-23T04:24:30.957Z,10.48
2023-01-23T04:26:58.421Z,9.79
2023-01-23T04:29:26.037Z,10.14
2023-01-23T04:31:54.221Z,10.58
2023-01-23T04:34:22.272Z,10.17
2023-01-23T04:36:50.014Z,9.74
2023-01-23T04:39:18.007Z,10.53
2023-01-23T04:41:45.629Z,10.45
2023-01-23T04:44:23.022Z,9.87
2023-01-23T04:46:55.370Z,10.62
2023-01-23T04:49:23.028Z,10.68
2023-01-23T04:51:51.136Z,10.80
2023-01-23T04:54:19.108Z,10.79
2023-01-23T04:56:46.490Z,10.09
2023-01-23T04:59:15.842Z,10.65
2023-01-23T05:01:43.685Z,9.99
2023-01-23T05:04:11.333Z,9.80
2023-01-23T05:06:38.937Z,10.21
2023-01-23T05:09:06.445Z,9.71
2023-01-23T05:11:35.080Z,9.86
2023-01-23T05:14:03.378Z,9.23
2023-01-23T05:16:30.914Z,9.37
2023-01-23T05:18:59.768Z,9.81
2023-01-23T05:21:27.683Z,9.91
2023-01-23T05:23:54.929Z,9.97
2023-01-23T05:26:22.237Z,9.55
2023-01-23T05:28:49.756Z,10.37
2023-01-23T05:31:17.096Z,10.34
2023-01-23T05:33:44.929Z,10.39
2023-01-23T05:36:12.802Z,10.49
2023-01-23T05:38:40.449Z,10.15
2023-01-23T05:41:08.237Z,10.54
2023-01-23T05:43:38.798Z,9.66
2023-01-23T05:46:07.188Z,10.45
2023-01-23T05:48:41.920Z,10.35
2023-01-23T05:51:10.007Z,10.50
2023-01-23T05:53:37.532Z,9.94
2023-01-23T05:56:05.530Z,9.75
2023-01-23T05:58:33.984Z,9.54
2023-01-23T06:01:02.591Z,9.45
2023-01-23T06:03:32.048Z,9.70
2023-01-23T06:06:00.698Z,9.51
2023-01-23T06:08:28.152Z,9.50
2023-01-23T06:10:58.528Z,9.55
2023-01-23T06:13:26.405Z,9.92
2023-01-23T06:15:53.707Z,9.62
2023-01-23T06:18:21.250Z,9.43
2023-01-23T06:20:48.420Z,9.29
2023-01-23T06:23:16.685Z,9.07
2023-01-23T06:25:44.239Z,9.46
2023-01-23T06:28:12.237Z,9.35
2023-01-23T06:30:39.442Z,9.49
2023-01-23T06:33:07.698Z,9.69
2023-01-23T06:35:35.306Z,9.72
2023-01-23T06:38:02.525Z,9.55
2023-01-23T06:40:30.507Z,9.50
2023-01-23T06:42:59.590Z,9.61
2023-01-23T06:45:26.786Z,9.16
2023-01-23T06:47:54.281Z,9.32
2023-01-23T06:50:22.498Z,9.74
2023-01-23T06:52:50.112Z,9.54
2023-01-23T06:55:18.537Z,9.50
2023-01-23T06:57:45.922Z,9.19
2023-01-23T07:00:13.608Z,9.37
2023-01-23T07:02:41.179Z,9.09
2023-01-23T07:05:08.538Z,9.49
2023-01-23T07:07:35.794Z,9.70
2023-01-23T07:10:03.353Z,9.48
2023-01-23T07:12:30.499Z,9.10
2023-01-23T07:14:57.850Z,9.87
2023-01-23T07:17:26.181Z,9.76
2023-01-23T07:19:53.420Z,9.53
2023-01-23T07:22:21.223Z,10.03
2023-01-23T07:24:48.770Z,9.92
2023-01-23T07:27:16.134Z,9.74
2023-01-23T07:29:43.416Z,9.72
2023-01-23T07:32:11.260Z,10.10
2023-01-23T07:34:38.609Z,9.83
2023-01-23T07:37:05.870Z,10.00
2023-01-23T07:39:33.383Z,9.39
2023-01-23T07:42:00.733Z,9.41
2023-01-23T07:44:28.249Z,9.73
2023-01-23T07:46:56.502Z,9.70
2023-01-23T07:49:23.703Z,9.88
2023-01-23T07:51:50.890Z,9.84
2023-01-23T07:54:18.389Z,9.98
2023-01-23T07:56:45.590Z,10.02
2023-01-23T07:59:13.273Z,9.52
2023-01-23T08:01:40.779Z,9.37
2023-01-23T08:04:08.415Z,10.24
2023-01-23T08:06:36.598Z,9.98
2023-01-23T08:09:03.844Z,9.90
2023-01-23T08:11:33.496Z,9.62
2023-01-23T08:14:01.565Z,10.00
2023-01-23T08:16:29.147Z,10.39
2023-01-23T08:18:56.763Z,10.14
2023-01-23T08:21:23.932Z,10.06
2023-01-23T08:23:51.226Z,9.50
2023-01-23T08:26:18.720Z,9.78
2023-01-23T08:28:46.037Z,9.89
2023-01-23T08:31:13.460Z,10.09
2023-01-23T08:33:41.128Z,9.89
2023-01-23T08:36:11.163Z,10.30
2023-01-23T08:38:38.560Z,9.80
2023-01-23T08:41:06.424Z,9.45
2023-01-23T08:43:33.744Z,9.27
2023-01-23T08:46:01.215Z,9.46
2023-01-23T08:48:28.908Z,9.63
2023-01-23T08:51:00.471Z,9.91
2023-01-23T08:53:27.933Z,9.77
2023-01-23T08:55:58.770Z,9.86
2023-01-23T08:58:26.092Z,9.79
2023-01-23T09:00:53.315Z,10.07
2023-01-23T09:03:21.026Z,9.84
2023-01-23T09:05:48.353Z,10.35
2023-01-23T09:08:15.543Z,9.90
2023-01-23T09:10:43.112Z,9.61
2023-01-23T09:13:10.448Z,9.61
2023-01-23T09:15:38.194Z,9.59
2023-01-23T09:18:05.746Z,10.15
2023-01-23T09:20:32.997Z,10.09
2023-01-23T09:23:00.243Z,10.63
2023-01-23T09:25:27.950Z,10.78
2023-01-23T09:27:55.347Z,10.54
2023-01-23T09:30:22.850Z,10.68
2023-01-23T09:32:50.808Z,10.69
2023-01-23T09:35:18.005Z,11.26
2023-01-23T09:38:00.551Z,11.97
2023-01-23T09:40:28.818Z,12.62
2023-01-23T09:42:57.149Z,11.95
2023-01-23T09:45:24.756Z,12.10
2023-01-23T09:48:12.398Z,12.15
2023-01-23T09:50:40.938Z,12.46
2023-01-23T09:53:11.909Z,12.42
2023-01-23T09:55:39.095Z,11.81
2023-01-23T09:58:06.271Z,11.69
2023-01-23T10:00:33.816Z,12.12
2023-01-23T10:03:01.830Z,12.37
2023-01-23T10:05:37.033Z,11.86
2023-01-23T10:08:11.190Z,12.58
2023-01-23T10:10:47.635Z,14.05
2023-01-23T10:13:20.985Z,13.88
2023-01-23T10:15:48.187Z,13.82
2023-01-23T10:18:26.429Z,13.12
2023-01-23T10:21:05.296Z,13.52
2023-01-23T10:24:01.901Z,13.21
2023-01-23T10:26:34.061Z,13.79
2023-01-23T10:29:03.822Z,14.36
2023-01-23T10:31:38.543Z,14.17
2023-01-23T10:34:06.159Z,13.92
2023-01-23T10:36:54.046Z,13.56
2023-01-23T10:39:40.849Z,13.40
2023-01-23T10:42:11.754Z,13.50
2023-01-23T10:44:39.286Z,13.57
2023-01-23T10:47:13.029Z,13.65
2023-01-23T10:49:44.397Z,13.25
2023-01-23T10:52:31.868Z,13.20
2023-01-23T10:54:59.482Z,12.83
2023-01-23T10:57:27.871Z,13.74
2023-01-23T10:59:55.482Z,13.25
2023-01-23T11:02:35.507Z,12.86
2023-01-23T11:05:03.295Z,12.44
2023-01-23T11:07:31.405Z,12.48
2023-01-23T11:09:59.890Z,12.26
2023-01-23T11:12:28.778Z,13.05
2023-01-23T11:15:15.204Z,12.80
2023-01-23T11:17:42.532Z,13.19
2023-01-23T11:20:11.526Z,12.28
2023-01-23T11:22:39.658Z,12.61
2023-01-23T11:25:39.454Z,12.68
2023-01-23T11:28:27.438Z,13.31
2023-01-23T11:31:16.034Z,13.19
2023-01-23T11:33:47.923Z,12.77
2023-01-23T11:36:22.404Z,12.54
2023-01-23T11:38:52.881Z,12.83
2023-01-23T11:41:20.815Z,13.21
2023-01-23T11:43:47.971Z,12.56
2023-01-23T11:46:19.022Z,12.44
2023-01-23T11:49:08.764Z,12.33
2023-01-23T11:51:42.137Z,12.32
2023-01-23T11:54:27.790Z,12.52
2023-01-23T11:57:02.288Z,11.96
2023-01-23T11:59:36.457Z,12.28
2023-01-23T12:02:04.100Z,12.47
2023-01-23T12:04:31.582Z,12.53
2023-01-23T12:07:17.722Z,12.66
2023-01-23T12:10:05.600Z,12.38
2023-01-23T12:12:51.332Z,12.53
2023-01-23T12:15:25.081Z,12.77
2023-01-23T12:18:11.989Z,12.51
2023-01-23T12:20:42.307Z,12.53
2023-01-23T12:23:37.693Z,12.57
2023-01-23T12:26:13.828Z,12.56
2023-01-23T12:28:53.330Z,12.65
2023-01-23T12:31:24.065Z,12.10
2023-01-23T12:33:58.031Z,12.28
2023-01-23T12:36:34.134Z,12.68
2023-01-23T12:39:02.405Z,12.42
2023-01-23T12:41:36.355Z,12.74
2023-01-23T12:44:22.623Z,12.41
2023-01-23T12:46:50.914Z,12.43
2023-01-23T12:49:47.690Z,12.64
2023-01-23T12:52:29.038Z,12.57
2023-01-23T12:55:03.970Z,12.12
2023-01-23T12:57:52.825Z,12.42
2023-01-23T13:00:36.932Z,12.68
2023-01-23T13:03:04.357Z,12.81
2023-01-23T13:05:37.559Z,12.66
2023-01-23T13:08:40.501Z,12.66
2023-01-23T13:11:40.402Z,12.92
2023-01-23T13:14:16.300Z,12.96
2023-01-23T13:16:47.753Z,13.00
2023-01-23T13:19:41.184Z,12.76
2023-01-23T13:22:30.462Z,12.68
2023-01-23T13:25:17.094Z,12.21
2023-01-23T13:27:45.519Z,12.65
2023-01-23T13:30:22.416Z,12.53
2023-01-23T13:32:50.822Z,12.34
2023-01-23T13:35:37.947Z,12.47
2023-01-23T13:38:25.485Z,12.49
2023-01-23T13:41:04.820Z,12.61
2023-01-23T13:43:50.471Z,12.51
2023-01-23T13:46:36.690Z,12.46
2023-01-23T14:21:49.323Z,12.51
2023-01-23T14:24:23.718Z,12.47
2023-01-23T14:26:52.070Z,12.41
2023-01-23T14:29:20.817Z,12.31
2023-01-23T14:31:48.292Z,12.58
2023-01-23T14:34:17.945Z,12.16
2023-01-23T14:36:50.836Z,12.43
2023-01-23T14:39:18.584Z,12.51
2023-01-23T14:41:47.545Z,12.41
2023-01-23T14:44:21.808Z,12.77
2023-01-23T14:46:52.980Z,12.49
2023-01-23T14:49:35.543Z,12.22
2023-01-23T14:52:03.933Z,12.63
2023-01-23T14:54:33.159Z,12.41
2023-01-23T14:57:01.351Z,12.10
2023-01-23T14:59:33.505Z,12.33
2023-01-23T15:02:05.390Z,11.82
2023-01-23T15:04:37.848Z,12.28
2023-01-23T15:07:05.064Z,12.46
2023-01-23T15:09:38.901Z,11.86
2023-01-23T15:12:07.756Z,11.78
2023-01-23T15:14:36.259Z,11.60
2023-01-23T15:17:04.499Z,12.01
2023-01-23T15:19:31.985Z,12.06
2023-01-23T15:22:06.440Z,12.12
2023-01-23T15:24:33.941Z,12.12
2023-01-23T15:27:03.691Z,12.58
2023-01-23T15:29:31.214Z,12.32
2023-01-23T15:31:59.497Z,12.37
2023-01-23T15:34:33.266Z,12.03
2023-01-23T15:37:05.360Z,12.27
2023-01-23T15:39:51.569Z,12.07
2023-01-23T15:42:18.982Z,11.93
2023-01-23T15:44:46.418Z,12.50
2023-01-23T15:47:13.586Z,12.40
2023-01-23T15:49:41.079Z,12.27
2023-01-23T15:52:18.183Z,12.64
2023-01-23T15:54:45.653Z,11.96
2023-01-23T15:57:13.230Z,12.77
2023-01-23T15:59:40.513Z,13.24
2023-01-23T16:02:12.877Z,13.24
2023-01-23T16:04:46.064Z,13.07
2023-01-23T16:07:19.160Z,12.92
2023-01-23T16:09:49.700Z,12.95
2023-01-23T16:12:17.826Z,13.11
2023-01-23T16:14:45.561Z,13.03
2023-01-23T16:17:17.052Z,12.58
2023-01-23T16:19:44.759Z,12.92
2023-01-23T16:22:13.152Z,12.67
2023-01-23T16:24:40.638Z,12.93
2023-01-23T16:27:10.464Z,12.75
2023-01-23T16:29:37.690Z,13.28
2023-01-23T16:32:05.902Z,12.21
2023-01-23T16:34:33.258Z,12.59
2023-01-23T16:37:01.053Z,12.41
2023-01-23T16:39:32.122Z,12.37
2023-01-23T16:41:59.653Z,12.28
2023-01-23T16:44:26.978Z,12.41
2023-01-23T16:46:54.532Z,12.04
2023-01-23T16:49:21.861Z,12.29
2023-01-23T16:51:56.924Z,12.65
2023-01-23T16:54:24.635Z,11.69
2023-01-23T16:56:52.821Z,12.32
2023-01-23T16:59:36.045Z,12.07
2023-01-23T17:02:12.057Z,12.06
2023-01-23T17:04:39.481Z,11.98
2023-01-23T17:07:10.292Z,12.87
2023-01-23T17:09:37.537Z,12.03
2023-01-23T17:12:05.053Z,12.25
2023-01-23T17:14:32.599Z,13.25
2023-01-23T17:17:04.444Z,13.16
2023-01-23T17:19:36.562Z,13.80
2023-01-23T17:22:04.900Z,13.73
2023-01-23T17:24:32.562Z,13.95
2023-01-23T17:26:59.857Z,13.77
2023-01-23T17:29:27.612Z,14.07
2023-01-23T17:31:54.952Z,13.92
2023-01-23T17:34:23.143Z,13.80
2023-01-23T17:36:51.809Z,13.89
2023-01-23T17:39:20.558Z,13.48
2023-01-23T17:41:48.023Z,13.67
2023-01-23T17:44:15.696Z,14.04
2023-01-23T17:46:43.083Z,14.18
2023-01-23T17:49:26.362Z,14.38
2023-01-23T17:51:53.970Z,14.65
2023-01-23T17:54:21.602Z,14.79
2023-01-23T17:56:49.343Z,14.70
2023-01-23T17:59:17.061Z,14.99
2023-01-23T18:01:44.248Z,14.98
2023-01-23T18:04:19.009Z,15.08
2023-01-23T18:06:46.313Z,15.02
2023-01-23T18:09:14.208Z,15.06
2023-01-23T18:11:43.068Z,14.94
2023-01-23T18:14:10.226Z,15.02
2023-01-23T18:16:45.381Z,14.82
2023-01-23T18:19:22.180Z,14.67
2023-01-23T18:21:51.194Z,14.43
2023-01-23T18:24:26.930Z,14.54
2023-01-23T18:27:13.477Z,14.64
2023-01-23T18:29:49.924Z,14.54
2023-01-23T18:32:23.978Z,14.70
2023-01-23T18:35:14.696Z,14.67
2023-01-23T18:37:48.056Z,14.59
2023-01-23T18:40:17.485Z,14.66
2023-01-23T18:42:45.950Z,14.59
2023-01-23T18:45:20.750Z,14.65
2023-01-23T18:47:54.340Z,14.62
2023-01-23T18:50:26.940Z,14.56
2023-01-23T18:52:54.749Z,14.12
2023-01-23T18:55:40.595Z,14.45
2023-01-23T18:58:20.680Z,14.38
2023-01-23T19:00:57.509Z,14.43
2023-01-23T19:03:28.980Z,14.32
2023-01-23T19:05:56.421Z,14.25
2023-01-23T19:08:28.162Z,14.26
2023-01-23T19:10:56.138Z,14.23
2023-01-23T19:13:29.997Z,14.31
2023-01-23T19:16:01.231Z,14.29
2023-01-23T19:18:41.048Z,14.30
2023-01-23T19:21:14.922Z,14.18
2023-01-23T19:23:47.034Z,14.26
2023-01-23T19:26:15.170Z,14.32
2023-01-23T19:28:42.732Z,14.23
2023-01-23T19:31:19.057Z,14.31
2023-01-23T19:33:47.091Z,14.36
2023-01-23T19:36:14.456Z,14.27
2023-01-23T19:38:41.843Z,14.33
2023-01-23T19:41:19.678Z,14.31
2023-01-23T19:43:50.858Z,14.11
2023-01-23T19:46:19.472Z,14.12
2023-01-23T19:48:46.937Z,14.13
2023-01-23T19:51:15.138Z,14.10
2023-01-23T19:53:43.360Z,14.05
2023-01-23T19:56:11.830Z,14.03
2023-01-23T19:58:39.701Z,14.02
2023-01-23T20:01:16.879Z,14.07
2023-01-23T20:03:44.579Z,13.98
2023-01-23T20:06:12.561Z,13.79
2023-01-23T20:08:39.943Z,13.89
2023-01-23T20:11:09.338Z,13.96
2023-01-23T20:13:36.550Z,13.55
2023-01-23T20:16:14.868Z,13.78
2023-01-23T20:18:42.823Z,13.76
2023-01-23T20:21:10.409Z,13.82
2023-01-23T20:23:37.725Z,13.90
2023-01-23T20:26:05.281Z,13.99
2023-01-23T20:28:32.741Z,13.94
2023-01-23T20:31:04.459Z,14.02
2023-01-23T20:33:32.376Z,13.97
2023-01-23T20:35:59.782Z,13.93
2023-01-23T20:38:27.138Z,13.87
2023-01-23T20:40:54.984Z,13.89
2023-01-23T20:43:22.315Z,13.96
2023-01-23T20:45:50.243Z,13.90
2023-01-23T20:48:18.147Z,13.85
2023-01-23T20:50:45.612Z,13.59
2023-01-23T20:53:32.102Z,13.80
2023-01-23T20:56:03.525Z,13.98
2023-01-23T20:58:49.972Z,13.99
2023-01-23T21:01:18.397Z,13.84
2023-01-23T21:03:48.326Z,13.87
2023-01-23T21:06:16.428Z,13.95
2023-01-23T21:08:44.118Z,13.97
2023-01-23T21:11:15.668Z,13.89
2023-01-23T21:13:43.081Z,13.89
2023-01-23T21:16:14.520Z,13.33
2023-01-23T21:18:44.693Z,13.31
2023-01-23T21:21:16.529Z,13.21
2023-01-23T21:23:46.684Z,13.02
2023-01-23T21:26:14.740Z,13.38
2023-01-23T21:28:42.094Z,13.74
2023-01-23T21:31:13.763Z,13.39
2023-01-23T21:33:44.175Z,13.68
2023-01-23T21:36:11.710Z,13.82
2023-01-23T21:38:39.301Z,13.66
2023-01-23T21:41:06.865Z,13.72
2023-01-23T21:43:34.190Z,13.67
2023-01-23T21:46:01.398Z,13.69
2023-01-23T21:48:29.745Z,13.99
2023-01-23T21:51:10.274Z,13.99
2023-01-23T21:53:38.597Z,13.95
2023-01-23T21:56:06.198Z,13.93
2023-01-23T21:58:33.737Z,13.99
2023-01-23T22:01:24.353Z,14.01
2023-01-23T22:03:51.890Z,14.07
2023-01-23T22:06:19.233Z,14.02
2023-01-23T22:08:46.436Z,13.96
2023-01-23T22:11:13.953Z,13.89
2023-01-23T22:13:41.177Z,13.66
2023-01-23T22:16:08.428Z,12.99
2023-01-23T22:18:35.931Z,13.42
2023-01-23T22:21:04.181Z,13.39
2023-01-23T22:23:31.578Z,12.23
2023-01-23T22:26:00.229Z,12.80
2023-01-23T22:28:27.517Z,12.42
2023-01-23T22:30:55.025Z,12.05
2023-01-23T22:33:23.889Z,12.19
2023-01-23T22:35:51.148Z,11.59
2023-01-23T22:38:18.328Z,11.54
2023-01-23T22:40:45.796Z,11.58
2023-01-23T22:43:12.972Z,11.03
2023-01-23T22:45:40.174Z,10.36
2023-01-23T22:48:07.689Z,10.90
2023-01-23T22:50:34.914Z,10.04
2023-01-23T22:53:02.237Z,11.53
2023-01-23T22:55:29.741Z,11.65
2023-01-23T22:57:56.911Z,11.97
2023-01-23T23:00:24.403Z,10.84
2023-01-23T23:02:51.817Z,10.53
2023-01-23T23:05:19.245Z,10.89
2023-01-23T23:07:46.695Z,10.90
2023-01-23T23:10:14.150Z,10.67
2023-01-23T23:12:41.351Z,11.11
2023-01-23T23:15:08.878Z,11.82
2023-01-23T23:17:36.379Z,11.24
2023-01-23T23:20:03.662Z,11.87
2023-01-23T23:22:30.809Z,12.40
2023-01-23T23:24:58.351Z,12.15
2023-01-23T23:27:25.545Z,11.89
2023-01-23T23:29:52.790Z,12.31
2023-01-23T23:32:20.264Z,12.63
2023-01-23T23:34:47.611Z,12.96
2023-01-23T23:37:14.769Z,12.98
2023-01-23T23:39:43.205Z,12.94
2023-01-23T23:42:10.391Z,13.19
2023-01-23T23:44:37.576Z,13.14
2023-01-23T23:47:05.074Z,13.09
2023-01-23T23:49:32.481Z,12.88
2023-01-23T23:51:59.778Z,12.98
2023-01-23T23:54:27.262Z,13.10
2023-01-23T23:56:54.493Z,13.01
2023-01-23T23:59:21.706Z,13.14
